sensor_id;sensor_type;location;lat;lon;timestamp;P1;durP1;ratioP1;P2;durP2;ratioP2
2766;SDS011;1391;46.742;11.636;2022-10-31T00:01:09;11.90;;;2.80;;
2766;SDS011;1391;46.742;11.636;2022-10-31T00:03:39;16.83;;;4.23;;
2766;SDS011;1391;46.742;11.636;2022-10-31T00:06:06;7.23;;;2.67;;
2766;SDS011;1391;46.742;11.636;2022-10-31T00:08:33;10.90;;;2.43;;
2766;SDS011;1391;46.742;11.636;2022-10-31T00:11:01;7.10;;;2.97;;
2766;SDS011;1391;46.742;11.636;2022-10-31T00:13:28;7.10;;;3.30;;
2766;SDS011;1391;46.742;11.636;2022-10-31T00:15:56;8.63;;;2.93;;
2766;SDS011;1391;46.742;11.636;2022-10-31T00:18:23;7.40;;;2.97;;
2766;SDS011;1391;46.742;11.636;2022-10-31T00:20:59;6.70;;;3.53;;
2766;SDS011;1391;46.742;11.636;2022-10-31T00:23:26;9.43;;;2.90;;
2766;SDS011;1391;46.742;11.636;2022-10-31T00:25:54;10.37;;;2.80;;
2766;SDS011;1391;46.742;11.636;2022-10-31T00:28:26;7.27;;;2.50;;
2766;SDS011;1391;46.742;11.636;2022-10-31T00:30:57;7.93;;;2.60;;
2766;SDS011;1391;46.742;11.636;2022-10-31T00:33:26;17.87;;;3.20;;
2766;SDS011;1391;46.742;11.636;2022-10-31T00:35:54;8.57;;;2.90;;
2766;SDS011;1391;46.742;11.636;2022-10-31T00:38:23;11.20;;;3.00;;
2766;SDS011;1391;46.742;11.636;2022-10-31T00:40:50;12.53;;;2.73;;
2766;SDS011;1391;46.742;11.636;2022-10-31T00:43:17;7.00;;;2.80;;
2766;SDS011;1391;46.742;11.636;2022-10-31T00:45:45;8.63;;;2.90;;
2766;SDS011;1391;46.742;11.636;2022-10-31T00:48:12;10.43;;;3.13;;
2766;SDS011;1391;46.742;11.636;2022-10-31T00:50:40;6.87;;;2.30;;
2766;SDS011;1391;46.742;11.636;2022-10-31T00:53:07;10.07;;;2.57;;
2766;SDS011;1391;46.742;11.636;2022-10-31T00:55:36;9.77;;;3.13;;
2766;SDS011;1391;46.742;11.636;2022-10-31T00:58:03;7.77;;;2.57;;
2766;SDS011;1391;46.742;11.636;2022-10-31T01:00:30;13.83;;;2.77;;
2766;SDS011;1391;46.742;11.636;2022-10-31T01:02:58;10.33;;;2.93;;
2766;SDS011;1391;46.742;11.636;2022-10-31T01:05:25;9.63;;;2.97;;
2766;SDS011;1391;46.742;11.636;2022-10-31T01:07:52;8.00;;;2.87;;
2766;SDS011;1391;46.742;11.636;2022-10-31T01:10:20;11.37;;;3.30;;
2766;SDS011;1391;46.742;11.636;2022-10-31T01:12:48;8.77;;;2.60;;
2766;SDS011;1391;46.742;11.636;2022-10-31T01:15:16;5.27;;;3.10;;
2766;SDS011;1391;46.742;11.636;2022-10-31T01:17:46;6.93;;;2.43;;
2766;SDS011;1391;46.742;11.636;2022-10-31T01:20:15;9.60;;;2.57;;
2766;SDS011;1391;46.742;11.636;2022-10-31T01:22:43;7.80;;;2.50;;
2766;SDS011;1391;46.742;11.636;2022-10-31T01:25:10;6.77;;;2.80;;
2766;SDS011;1391;46.742;11.636;2022-10-31T01:27:38;13.10;;;2.93;;
2766;SDS011;1391;46.742;11.636;2022-10-31T01:30:07;10.00;;;2.43;;
2766;SDS011;1391;46.742;11.636;2022-10-31T01:32:35;9.03;;;2.53;;
2766;SDS011;1391;46.742;11.636;2022-10-31T01:35:03;6.83;;;2.60;;
2766;SDS011;1391;46.742;11.636;2022-10-31T01:37:30;6.97;;;2.60;;
2766;SDS011;1391;46.742;11.636;2022-10-31T01:39:58;10.53;;;2.40;;
2766;SDS011;1391;46.742;11.636;2022-10-31T01:42:25;10.10;;;2.67;;
2766;SDS011;1391;46.742;11.636;2022-10-31T01:44:54;10.17;;;3.53;;
2766;SDS011;1391;46.742;11.636;2022-10-31T01:47:34;9.27;;;2.50;;
2766;SDS011;1391;46.742;11.636;2022-10-31T01:50:10;12.13;;;2.90;;
2766;SDS011;1391;46.742;11.636;2022-10-31T01:52:53;8.23;;;3.13;;
2766;SDS011;1391;46.742;11.636;2022-10-31T01:55:22;7.57;;;2.57;;
2766;SDS011;1391;46.742;11.636;2022-10-31T01:57:54;5.03;;;2.63;;
2766;SDS011;1391;46.742;11.636;2022-10-31T02:00:25;6.97;;;2.50;;
2766;SDS011;1391;46.742;11.636;2022-10-31T02:02:53;7.07;;;2.97;;
2766;SDS011;1391;46.742;11.636;2022-10-31T02:05:22;7.33;;;3.57;;
2766;SDS011;1391;46.742;11.636;2022-10-31T02:07:55;10.87;;;2.80;;
2766;SDS011;1391;46.742;11.636;2022-10-31T02:10:27;10.80;;;2.63;;
2766;SDS011;1391;46.742;11.636;2022-10-31T02:12:57;5.47;;;2.80;;
2766;SDS011;1391;46.742;11.636;2022-10-31T02:15:26;10.37;;;2.50;;
2766;SDS011;1391;46.742;11.636;2022-10-31T02:17:56;16.03;;;2.93;;
2766;SDS011;1391;46.742;11.636;2022-10-31T02:20:24;7.43;;;2.37;;
2766;SDS011;1391;46.742;11.636;2022-10-31T02:23:04;9.40;;;2.77;;
2766;SDS011;1391;46.742;11.636;2022-10-31T02:26:02;8.47;;;2.60;;
2766;SDS011;1391;46.742;11.636;2022-10-31T02:29:10;8.80;;;2.80;;
2766;SDS011;1391;46.742;11.636;2022-10-31T02:32:29;4.87;;;2.37;;
2766;SDS011;1391;46.742;11.636;2022-10-31T02:35:10;9.30;;;3.40;;
2766;SDS011;1391;46.742;11.636;2022-10-31T02:37:47;4.03;;;2.10;;
2766;SDS011;1391;46.742;11.636;2022-10-31T02:40:23;6.53;;;2.40;;
2766;SDS011;1391;46.742;11.636;2022-10-31T02:42:57;10.90;;;2.70;;
2766;SDS011;1391;46.742;11.636;2022-10-31T02:45:32;11.50;;;2.60;;
2766;SDS011;1391;46.742;11.636;2022-10-31T02:48:08;7.93;;;2.97;;
2766;SDS011;1391;46.742;11.636;2022-10-31T02:50:39;5.27;;;2.50;;
2766;SDS011;1391;46.742;11.636;2022-10-31T02:53:13;14.80;;;2.77;;
2766;SDS011;1391;46.742;11.636;2022-10-31T02:55:44;7.17;;;2.60;;
2766;SDS011;1391;46.742;11.636;2022-10-31T02:58:23;11.53;;;2.77;;
2766;SDS011;1391;46.742;11.636;2022-10-31T03:01:00;6.87;;;2.93;;
2766;SDS011;1391;46.742;11.636;2022-10-31T03:03:57;6.73;;;2.40;;
2766;SDS011;1391;46.742;11.636;2022-10-31T03:06:44;9.90;;;2.50;;
2766;SDS011;1391;46.742;11.636;2022-10-31T03:09:18;7.53;;;2.20;;
2766;SDS011;1391;46.742;11.636;2022-10-31T03:11:53;6.40;;;2.37;;
2766;SDS011;1391;46.742;11.636;2022-10-31T03:14:27;8.97;;;2.50;;
2766;SDS011;1391;46.742;11.636;2022-10-31T03:17:04;6.57;;;2.87;;
2766;SDS011;1391;46.742;11.636;2022-10-31T03:19:36;9.60;;;2.60;;
2766;SDS011;1391;46.742;11.636;2022-10-31T03:22:10;9.90;;;2.70;;
2766;SDS011;1391;46.742;11.636;2022-10-31T03:24:43;8.27;;;2.70;;
2766;SDS011;1391;46.742;11.636;2022-10-31T03:27:14;7.60;;;3.03;;
2766;SDS011;1391;46.742;11.636;2022-10-31T03:29:47;7.23;;;2.43;;
2766;SDS011;1391;46.742;11.636;2022-10-31T03:32:18;8.43;;;2.90;;
2766;SDS011;1391;46.742;11.636;2022-10-31T03:34:50;4.57;;;2.63;;
2766;SDS011;1391;46.742;11.636;2022-10-31T03:37:20;12.00;;;3.27;;
2766;SDS011;1391;46.742;11.636;2022-10-31T03:39:48;9.40;;;2.77;;
2766;SDS011;1391;46.742;11.636;2022-10-31T03:42:17;11.23;;;2.83;;
2766;SDS011;1391;46.742;11.636;2022-10-31T03:44:49;7.97;;;2.70;;
2766;SDS011;1391;46.742;11.636;2022-10-31T03:47:23;10.33;;;2.53;;
2766;SDS011;1391;46.742;11.636;2022-10-31T03:49:53;9.03;;;2.70;;
2766;SDS011;1391;46.742;11.636;2022-10-31T03:52:22;8.00;;;3.20;;
2766;SDS011;1391;46.742;11.636;2022-10-31T03:54:54;6.93;;;2.60;;
2766;SDS011;1391;46.742;11.636;2022-10-31T03:57:24;9.87;;;2.83;;
2766;SDS011;1391;46.742;11.636;2022-10-31T03:59:57;10.17;;;2.43;;
2766;SDS011;1391;46.742;11.636;2022-10-31T04:02:30;9.20;;;4.00;;
2766;SDS011;1391;46.742;11.636;2022-10-31T04:05:03;11.07;;;3.30;;
2766;SDS011;1391;46.742;11.636;2022-10-31T04:07:33;10.30;;;3.37;;
2766;SDS011;1391;46.742;11.636;2022-10-31T04:10:06;7.37;;;2.67;;
2766;SDS011;1391;46.742;11.636;2022-10-31T04:12:37;10.97;;;3.10;;
2766;SDS011;1391;46.742;11.636;2022-10-31T04:15:06;9.60;;;2.70;;
2766;SDS011;1391;46.742;11.636;2022-10-31T04:17:36;10.27;;;2.70;;
2766;SDS011;1391;46.742;11.636;2022-10-31T04:20:09;14.97;;;3.57;;
2766;SDS011;1391;46.742;11.636;2022-10-31T04:22:37;4.60;;;2.50;;
2766;SDS011;1391;46.742;11.636;2022-10-31T04:25:04;7.30;;;2.37;;
2766;SDS011;1391;46.742;11.636;2022-10-31T04:27:33;6.40;;;2.70;;
2766;SDS011;1391;46.742;11.636;2022-10-31T04:30:01;9.07;;;2.40;;
2766;SDS011;1391;46.742;11.636;2022-10-31T04:32:28;12.00;;;3.93;;
2766;SDS011;1391;46.742;11.636;2022-10-31T04:34:56;10.70;;;3.33;;
2766;SDS011;1391;46.742;11.636;2022-10-31T04:37:24;4.73;;;2.43;;
2766;SDS011;1391;46.742;11.636;2022-10-31T04:39:51;7.37;;;2.57;;
2766;SDS011;1391;46.742;11.636;2022-10-31T04:42:19;5.43;;;2.70;;
2766;SDS011;1391;46.742;11.636;2022-10-31T04:44:46;5.50;;;2.80;;
2766;SDS011;1391;46.742;11.636;2022-10-31T04:47:13;9.33;;;2.53;;
2766;SDS011;1391;46.742;11.636;2022-10-31T04:49:40;5.50;;;2.90;;
2766;SDS011;1391;46.742;11.636;2022-10-31T04:52:07;8.27;;;2.60;;
2766;SDS011;1391;46.742;11.636;2022-10-31T04:54:36;9.77;;;2.73;;
2766;SDS011;1391;46.742;11.636;2022-10-31T04:57:03;11.37;;;2.90;;
2766;SDS011;1391;46.742;11.636;2022-10-31T04:59:30;6.57;;;2.90;;
2766;SDS011;1391;46.742;11.636;2022-10-31T05:01:57;3.63;;;2.60;;
2766;SDS011;1391;46.742;11.636;2022-10-31T05:04:25;7.53;;;2.90;;
2766;SDS011;1391;46.742;11.636;2022-10-31T05:06:52;4.13;;;2.73;;
2766;SDS011;1391;46.742;11.636;2022-10-31T05:09:19;11.00;;;2.70;;
2766;SDS011;1391;46.742;11.636;2022-10-31T05:11:48;5.27;;;1.97;;
2766;SDS011;1391;46.742;11.636;2022-10-31T05:14:15;8.00;;;2.50;;
2766;SDS011;1391;46.742;11.636;2022-10-31T05:16:42;5.70;;;2.70;;
2766;SDS011;1391;46.742;11.636;2022-10-31T05:19:09;6.60;;;2.27;;
2766;SDS011;1391;46.742;11.636;2022-10-31T05:21:37;7.80;;;4.20;;
2766;SDS011;1391;46.742;11.636;2022-10-31T05:24:04;5.27;;;2.80;;
2766;SDS011;1391;46.742;11.636;2022-10-31T05:26:32;7.20;;;3.00;;
2766;SDS011;1391;46.742;11.636;2022-10-31T05:29:01;7.57;;;2.73;;
2766;SDS011;1391;46.742;11.636;2022-10-31T05:31:28;8.13;;;2.60;;
2766;SDS011;1391;46.742;11.636;2022-10-31T05:33:55;5.67;;;2.80;;
2766;SDS011;1391;46.742;11.636;2022-10-31T05:36:23;7.30;;;2.13;;
2766;SDS011;1391;46.742;11.636;2022-10-31T05:38:50;11.57;;;2.60;;
2766;SDS011;1391;46.742;11.636;2022-10-31T05:41:17;8.37;;;3.10;;
2766;SDS011;1391;46.742;11.636;2022-10-31T05:43:44;10.83;;;2.80;;
2766;SDS011;1391;46.742;11.636;2022-10-31T05:46:13;8.10;;;3.07;;
2766;SDS011;1391;46.742;11.636;2022-10-31T05:48:40;6.43;;;2.43;;
2766;SDS011;1391;46.742;11.636;2022-10-31T05:51:08;8.20;;;3.27;;
2766;SDS011;1391;46.742;11.636;2022-10-31T05:53:35;10.13;;;4.67;;
2766;SDS011;1391;46.742;11.636;2022-10-31T05:56:02;9.97;;;3.53;;
2766;SDS011;1391;46.742;11.636;2022-10-31T05:58:30;8.93;;;3.70;;
2766;SDS011;1391;46.742;11.636;2022-10-31T06:00:58;7.87;;;2.73;;
2766;SDS011;1391;46.742;11.636;2022-10-31T06:03:26;5.20;;;2.27;;
2766;SDS011;1391;46.742;11.636;2022-10-31T06:05:54;4.90;;;2.97;;
2766;SDS011;1391;46.742;11.636;2022-10-31T06:08:21;7.73;;;2.60;;
2766;SDS011;1391;46.742;11.636;2022-10-31T06:10:49;5.93;;;3.23;;
2766;SDS011;1391;46.742;11.636;2022-10-31T06:13:18;9.40;;;2.47;;
2766;SDS011;1391;46.742;11.636;2022-10-31T06:15:45;9.37;;;3.10;;
2766;SDS011;1391;46.742;11.636;2022-10-31T06:18:12;9.87;;;3.23;;
2766;SDS011;1391;46.742;11.636;2022-10-31T06:20:41;8.40;;;2.90;;
2766;SDS011;1391;46.742;11.636;2022-10-31T06:23:08;7.30;;;2.87;;
2766;SDS011;1391;46.742;11.636;2022-10-31T06:25:35;6.87;;;2.57;;
2766;SDS011;1391;46.742;11.636;2022-10-31T06:28:02;4.80;;;2.23;;
2766;SDS011;1391;46.742;11.636;2022-10-31T06:30:30;9.40;;;2.27;;
2766;SDS011;1391;46.742;11.636;2022-10-31T06:33:01;8.43;;;2.47;;
2766;SDS011;1391;46.742;11.636;2022-10-31T06:35:29;8.27;;;2.77;;
2766;SDS011;1391;46.742;11.636;2022-10-31T06:37:58;6.23;;;2.47;;
2766;SDS011;1391;46.742;11.636;2022-10-31T06:40:26;11.63;;;3.47;;
2766;SDS011;1391;46.742;11.636;2022-10-31T06:42:56;9.60;;;3.40;;
2766;SDS011;1391;46.742;11.636;2022-10-31T06:45:24;11.43;;;3.30;;
2766;SDS011;1391;46.742;11.636;2022-10-31T06:47:51;9.50;;;3.93;;
2766;SDS011;1391;46.742;11.636;2022-10-31T06:50:19;13.13;;;3.10;;
2766;SDS011;1391;46.742;11.636;2022-10-31T06:52:50;6.83;;;2.77;;
2766;SDS011;1391;46.742;11.636;2022-10-31T06:55:19;9.97;;;3.77;;
2766;SDS011;1391;46.742;11.636;2022-10-31T06:57:51;10.73;;;4.20;;
2766;SDS011;1391;46.742;11.636;2022-10-31T07:00:18;13.87;;;4.03;;
2766;SDS011;1391;46.742;11.636;2022-10-31T07:02:52;9.30;;;3.73;;
2766;SDS011;1391;46.742;11.636;2022-10-31T07:05:21;10.03;;;4.50;;
2766;SDS011;1391;46.742;11.636;2022-10-31T07:07:51;10.30;;;2.90;;
2766;SDS011;1391;46.742;11.636;2022-10-31T07:10:21;11.33;;;3.27;;
2766;SDS011;1391;46.742;11.636;2022-10-31T07:12:53;7.10;;;3.23;;
2766;SDS011;1391;46.742;11.636;2022-10-31T07:15:21;10.57;;;4.73;;
2766;SDS011;1391;46.742;11.636;2022-10-31T07:17:49;9.93;;;5.50;;
2766;SDS011;1391;46.742;11.636;2022-10-31T07:20:16;10.67;;;5.00;;
2766;SDS011;1391;46.742;11.636;2022-10-31T07:22:44;13.30;;;5.30;;
2766;SDS011;1391;46.742;11.636;2022-10-31T07:25:11;15.83;;;5.80;;
2766;SDS011;1391;46.742;11.636;2022-10-31T07:27:40;14.03;;;5.53;;
2766;SDS011;1391;46.742;11.636;2022-10-31T07:30:10;15.50;;;4.87;;
2766;SDS011;1391;46.742;11.636;2022-10-31T07:32:39;10.60;;;5.67;;
2766;SDS011;1391;46.742;11.636;2022-10-31T07:35:07;10.53;;;4.80;;
2766;SDS011;1391;46.742;11.636;2022-10-31T07:37:35;13.87;;;4.77;;
2766;SDS011;1391;46.742;11.636;2022-10-31T07:40:03;11.60;;;5.20;;
2766;SDS011;1391;46.742;11.636;2022-10-31T07:42:34;10.30;;;5.13;;
2766;SDS011;1391;46.742;11.636;2022-10-31T07:45:04;10.50;;;4.23;;
2766;SDS011;1391;46.742;11.636;2022-10-31T07:47:37;9.47;;;3.67;;
2766;SDS011;1391;46.742;11.636;2022-10-31T07:50:05;11.67;;;4.57;;
2766;SDS011;1391;46.742;11.636;2022-10-31T07:52:33;13.17;;;5.07;;
2766;SDS011;1391;46.742;11.636;2022-10-31T07:55:00;14.90;;;4.70;;
2766;SDS011;1391;46.742;11.636;2022-10-31T07:57:28;7.40;;;4.73;;
2766;SDS011;1391;46.742;11.636;2022-10-31T07:59:56;11.10;;;3.73;;
2766;SDS011;1391;46.742;11.636;2022-10-31T08:02:24;10.90;;;4.37;;
2766;SDS011;1391;46.742;11.636;2022-10-31T08:04:52;11.83;;;4.87;;
2766;SDS011;1391;46.742;11.636;2022-10-31T08:07:20;10.77;;;4.90;;
2766;SDS011;1391;46.742;11.636;2022-10-31T08:09:47;11.50;;;4.30;;
2766;SDS011;1391;46.742;11.636;2022-10-31T08:12:14;12.30;;;5.17;;
2766;SDS011;1391;46.742;11.636;2022-10-31T08:14:41;9.17;;;4.30;;
2766;SDS011;1391;46.742;11.636;2022-10-31T08:17:09;11.43;;;3.70;;
2766;SDS011;1391;46.742;11.636;2022-10-31T08:19:39;14.77;;;4.80;;
2766;SDS011;1391;46.742;11.636;2022-10-31T08:22:06;11.10;;;4.73;;
2766;SDS011;1391;46.742;11.636;2022-10-31T08:24:33;9.40;;;3.83;;
2766;SDS011;1391;46.742;11.636;2022-10-31T08:27:00;12.03;;;3.87;;
2766;SDS011;1391;46.742;11.636;2022-10-31T08:29:27;10.47;;;4.27;;
2766;SDS011;1391;46.742;11.636;2022-10-31T08:31:55;15.23;;;4.30;;
2766;SDS011;1391;46.742;11.636;2022-10-31T08:34:24;8.17;;;3.73;;
2766;SDS011;1391;46.742;11.636;2022-10-31T08:36:53;13.10;;;3.97;;
2766;SDS011;1391;46.742;11.636;2022-10-31T08:39:20;10.40;;;3.93;;
2766;SDS011;1391;46.742;11.636;2022-10-31T08:41:47;14.60;;;4.30;;
2766;SDS011;1391;46.742;11.636;2022-10-31T08:44:15;10.43;;;3.63;;
2766;SDS011;1391;46.742;11.636;2022-10-31T08:46:42;9.07;;;3.73;;
2766;SDS011;1391;46.742;11.636;2022-10-31T08:49:09;16.77;;;4.70;;
2766;SDS011;1391;46.742;11.636;2022-10-31T08:51:37;10.73;;;4.30;;
2766;SDS011;1391;46.742;11.636;2022-10-31T08:54:05;12.77;;;4.47;;
2766;SDS011;1391;46.742;11.636;2022-10-31T08:56:33;11.80;;;4.23;;
2766;SDS011;1391;46.742;11.636;2022-10-31T08:59:00;13.60;;;5.00;;
2766;SDS011;1391;46.742;11.636;2022-10-31T09:01:27;11.73;;;3.90;;
2766;SDS011;1391;46.742;11.636;2022-10-31T09:03:54;8.00;;;3.73;;
2766;SDS011;1391;46.742;11.636;2022-10-31T09:06:21;12.90;;;4.20;;
2766;SDS011;1391;46.742;11.636;2022-10-31T09:08:48;11.27;;;3.57;;
2766;SDS011;1391;46.742;11.636;2022-10-31T09:11:17;12.63;;;3.97;;
2766;SDS011;1391;46.742;11.636;2022-10-31T09:13:44;11.73;;;4.10;;
2766;SDS011;1391;46.742;11.636;2022-10-31T09:16:11;9.87;;;4.40;;
2766;SDS011;1391;46.742;11.636;2022-10-31T09:18:39;11.90;;;4.30;;
2766;SDS011;1391;46.742;11.636;2022-10-31T09:21:07;13.83;;;4.03;;
2766;SDS011;1391;46.742;11.636;2022-10-31T09:23:34;10.30;;;4.00;;
2766;SDS011;1391;46.742;11.636;2022-10-31T09:26:02;12.60;;;3.83;;
2766;SDS011;1391;46.742;11.636;2022-10-31T09:28:31;10.20;;;3.80;;
2766;SDS011;1391;46.742;11.636;2022-10-31T09:30:58;7.40;;;3.33;;
2766;SDS011;1391;46.742;11.636;2022-10-31T09:33:25;13.13;;;3.93;;
2766;SDS011;1391;46.742;11.636;2022-10-31T09:35:52;8.37;;;3.70;;
2766;SDS011;1391;46.742;11.636;2022-10-31T09:38:20;12.47;;;4.30;;
2766;SDS011;1391;46.742;11.636;2022-10-31T09:40:49;9.40;;;3.33;;
2766;SDS011;1391;46.742;11.636;2022-10-31T09:43:23;8.40;;;3.80;;
2766;SDS011;1391;46.742;11.636;2022-10-31T09:45:58;12.20;;;3.40;;
2766;SDS011;1391;46.742;11.636;2022-10-31T09:48:37;14.37;;;3.20;;
2766;SDS011;1391;46.742;11.636;2022-10-31T09:51:16;11.37;;;3.37;;
2766;SDS011;1391;46.742;11.636;2022-10-31T09:53:48;8.50;;;2.93;;
2766;SDS011;1391;46.742;11.636;2022-10-31T09:56:20;5.80;;;3.10;;
2766;SDS011;1391;46.742;11.636;2022-10-31T09:58:50;14.47;;;2.80;;
2766;SDS011;1391;46.742;11.636;2022-10-31T10:01:28;9.73;;;3.00;;
2766;SDS011;1391;46.742;11.636;2022-10-31T10:04:05;12.90;;;3.67;;
2766;SDS011;1391;46.742;11.636;2022-10-31T10:06:53;13.47;;;3.80;;
2766;SDS011;1391;46.742;11.636;2022-10-31T10:09:22;12.50;;;3.37;;
2766;SDS011;1391;46.742;11.636;2022-10-31T10:11:55;8.67;;;2.80;;
2766;SDS011;1391;46.742;11.636;2022-10-31T10:14:41;12.70;;;3.30;;
2766;SDS011;1391;46.742;11.636;2022-10-31T10:17:36;8.70;;;2.60;;
2766;SDS011;1391;46.742;11.636;2022-10-31T10:20:13;11.67;;;3.17;;
2766;SDS011;1391;46.742;11.636;2022-10-31T10:22:52;13.43;;;3.33;;
2766;SDS011;1391;46.742;11.636;2022-10-31T10:25:32;10.27;;;3.33;;
2766;SDS011;1391;46.742;11.636;2022-10-31T10:28:08;14.03;;;3.73;;
2766;SDS011;1391;46.742;11.636;2022-10-31T10:30:44;6.87;;;2.60;;
2766;SDS011;1391;46.742;11.636;2022-10-31T10:33:18;7.07;;;3.10;;
2766;SDS011;1391;46.742;11.636;2022-10-31T10:35:50;12.87;;;4.53;;
2766;SDS011;1391;46.742;11.636;2022-10-31T10:38:23;11.80;;;3.73;;
2766;SDS011;1391;46.742;11.636;2022-10-31T10:40:54;13.67;;;2.90;;
2766;SDS011;1391;46.742;11.636;2022-10-31T10:43:24;7.07;;;3.20;;
2766;SDS011;1391;46.742;11.636;2022-10-31T10:46:00;10.80;;;3.60;;
2766;SDS011;1391;46.742;11.636;2022-10-31T10:49:03;13.27;;;4.23;;
2766;SDS011;1391;46.742;11.636;2022-10-31T10:51:44;15.20;;;3.87;;
2766;SDS011;1391;46.742;11.636;2022-10-31T10:54:33;12.23;;;3.10;;
2766;SDS011;1391;46.742;11.636;2022-10-31T10:57:30;14.87;;;3.03;;
2766;SDS011;1391;46.742;11.636;2022-10-31T11:00:15;12.13;;;2.97;;
2766;SDS011;1391;46.742;11.636;2022-10-31T11:02:46;11.23;;;3.20;;
2766;SDS011;1391;46.742;11.636;2022-10-31T11:05:18;14.20;;;6.70;;
2766;SDS011;1391;46.742;11.636;2022-10-31T11:07:51;13.53;;;3.13;;
2766;SDS011;1391;46.742;11.636;2022-10-31T11:10:18;10.70;;;3.47;;
2766;SDS011;1391;46.742;11.636;2022-10-31T11:12:57;10.33;;;3.70;;
2766;SDS011;1391;46.742;11.636;2022-10-31T11:15:34;9.87;;;4.00;;
2766;SDS011;1391;46.742;11.636;2022-10-31T11:18:04;16.00;;;3.73;;
2766;SDS011;1391;46.742;11.636;2022-10-31T11:20:33;7.37;;;2.60;;
2766;SDS011;1391;46.742;11.636;2022-10-31T11:23:15;9.53;;;2.83;;
2766;SDS011;1391;46.742;11.636;2022-10-31T11:25:48;11.13;;;2.90;;
2766;SDS011;1391;46.742;11.636;2022-10-31T11:28:18;8.20;;;2.70;;
2766;SDS011;1391;46.742;11.636;2022-10-31T11:30:46;6.47;;;2.87;;
2766;SDS011;1391;46.742;11.636;2022-10-31T11:33:21;6.47;;;2.97;;
2766;SDS011;1391;46.742;11.636;2022-10-31T11:35:55;8.30;;;2.90;;
2766;SDS011;1391;46.742;11.636;2022-10-31T11:38:24;9.70;;;2.67;;
2766;SDS011;1391;46.742;11.636;2022-10-31T11:41:00;8.77;;;2.80;;
2766;SDS011;1391;46.742;11.636;2022-10-31T11:43:37;13.93;;;3.07;;
2766;SDS011;1391;46.742;11.636;2022-10-31T11:46:11;7.27;;;2.80;;
2766;SDS011;1391;46.742;11.636;2022-10-31T11:48:47;9.43;;;2.47;;
2766;SDS011;1391;46.742;11.636;2022-10-31T11:51:21;8.97;;;2.40;;
2766;SDS011;1391;46.742;11.636;2022-10-31T11:53:54;13.83;;;3.13;;
2766;SDS011;1391;46.742;11.636;2022-10-31T11:56:24;10.13;;;2.80;;
2766;SDS011;1391;46.742;11.636;2022-10-31T11:58:55;8.17;;;2.97;;
2766;SDS011;1391;46.742;11.636;2022-10-31T12:01:24;11.07;;;3.03;;
2766;SDS011;1391;46.742;11.636;2022-10-31T12:03:54;7.93;;;2.47;;
2766;SDS011;1391;46.742;11.636;2022-10-31T12:06:34;11.00;;;3.17;;
2766;SDS011;1391;46.742;11.636;2022-10-31T12:09:07;6.07;;;2.83;;
2766;SDS011;1391;46.742;11.636;2022-10-31T12:11:51;8.70;;;3.00;;
2766;SDS011;1391;46.742;11.636;2022-10-31T12:14:50;7.57;;;2.33;;
2766;SDS011;1391;46.742;11.636;2022-10-31T12:17:33;9.23;;;2.70;;
2766;SDS011;1391;46.742;11.636;2022-10-31T12:20:12;9.47;;;2.93;;
2766;SDS011;1391;46.742;11.636;2022-10-31T12:22:55;6.03;;;2.00;;
2766;SDS011;1391;46.742;11.636;2022-10-31T12:25:34;3.90;;;1.90;;
2766;SDS011;1391;46.742;11.636;2022-10-31T12:31:17;13.93;;;2.63;;
2766;SDS011;1391;46.742;11.636;2022-10-31T12:34:17;7.07;;;2.33;;
2766;SDS011;1391;46.742;11.636;2022-10-31T12:37:18;10.23;;;2.60;;
2766;SDS011;1391;46.742;11.636;2022-10-31T12:43:23;6.10;;;2.40;;
2766;SDS011;1391;46.742;11.636;2022-10-31T12:46:02;12.67;;;3.20;;
2766;SDS011;1391;46.742;11.636;2022-10-31T12:48:44;8.23;;;2.43;;
2766;SDS011;1391;46.742;11.636;2022-10-31T12:51:38;7.53;;;2.90;;
2766;SDS011;1391;46.742;11.636;2022-10-31T12:54:18;10.57;;;2.67;;
2766;SDS011;1391;46.742;11.636;2022-10-31T12:57:02;9.73;;;2.93;;
2766;SDS011;1391;46.742;11.636;2022-10-31T12:59:39;11.97;;;3.10;;
2766;SDS011;1391;46.742;11.636;2022-10-31T13:02:13;11.17;;;2.90;;
2766;SDS011;1391;46.742;11.636;2022-10-31T13:04:47;10.77;;;2.60;;
2766;SDS011;1391;46.742;11.636;2022-10-31T13:07:22;9.23;;;2.30;;
2766;SDS011;1391;46.742;11.636;2022-10-31T13:09:55;8.43;;;3.50;;
2766;SDS011;1391;46.742;11.636;2022-10-31T13:12:30;8.17;;;2.90;;
2766;SDS011;1391;46.742;11.636;2022-10-31T13:15:03;8.23;;;2.97;;
2766;SDS011;1391;46.742;11.636;2022-10-31T13:17:41;7.53;;;2.50;;
2766;SDS011;1391;46.742;11.636;2022-10-31T13:20:18;11.70;;;2.63;;
2766;SDS011;1391;46.742;11.636;2022-10-31T13:22:52;13.00;;;3.10;;
2766;SDS011;1391;46.742;11.636;2022-10-31T13:25:24;10.53;;;3.20;;
2766;SDS011;1391;46.742;11.636;2022-10-31T13:27:58;11.43;;;4.30;;
2766;SDS011;1391;46.742;11.636;2022-10-31T13:30:31;14.13;;;8.33;;
2766;SDS011;1391;46.742;11.636;2022-10-31T13:33:03;11.10;;;4.90;;
2766;SDS011;1391;46.742;11.636;2022-10-31T13:35:40;10.10;;;4.37;;
2766;SDS011;1391;46.742;11.636;2022-10-31T13:38:23;19.90;;;8.90;;
2766;SDS011;1391;46.742;11.636;2022-10-31T13:40:57;11.30;;;5.57;;
2766;SDS011;1391;46.742;11.636;2022-10-31T13:43:33;9.47;;;4.10;;
2766;SDS011;1391;46.742;11.636;2022-10-31T13:46:22;8.63;;;3.13;;
2766;SDS011;1391;46.742;11.636;2022-10-31T13:48:51;8.00;;;3.23;;
2766;SDS011;1391;46.742;11.636;2022-10-31T13:51:24;10.83;;;3.37;;
2766;SDS011;1391;46.742;11.636;2022-10-31T13:53:56;10.37;;;2.83;;
2766;SDS011;1391;46.742;11.636;2022-10-31T13:56:26;6.63;;;2.90;;
2766;SDS011;1391;46.742;11.636;2022-10-31T13:59:03;9.57;;;2.83;;
2766;SDS011;1391;46.742;11.636;2022-10-31T14:01:49;11.40;;;3.47;;
2766;SDS011;1391;46.742;11.636;2022-10-31T14:04:22;12.33;;;3.30;;
2766;SDS011;1391;46.742;11.636;2022-10-31T14:06:56;11.40;;;3.23;;
2766;SDS011;1391;46.742;11.636;2022-10-31T14:09:32;9.97;;;2.90;;
2766;SDS011;1391;46.742;11.636;2022-10-31T14:12:04;6.23;;;2.17;;
2766;SDS011;1391;46.742;11.636;2022-10-31T14:14:47;9.63;;;4.03;;
2766;SDS011;1391;46.742;11.636;2022-10-31T14:17:19;10.70;;;3.40;;
2766;SDS011;1391;46.742;11.636;2022-10-31T14:19:56;10.57;;;3.53;;
2766;SDS011;1391;46.742;11.636;2022-10-31T14:22:31;7.90;;;2.53;;
2766;SDS011;1391;46.742;11.636;2022-10-31T14:27:52;4.83;;;2.40;;
2766;SDS011;1391;46.742;11.636;2022-10-31T14:30:22;7.10;;;2.80;;
2766;SDS011;1391;46.742;11.636;2022-10-31T14:32:52;12.60;;;4.53;;
2766;SDS011;1391;46.742;11.636;2022-10-31T14:35:24;12.17;;;4.13;;
2766;SDS011;1391;46.742;11.636;2022-10-31T14:38:06;11.60;;;3.83;;
2766;SDS011;1391;46.742;11.636;2022-10-31T14:41:01;12.77;;;4.03;;
2766;SDS011;1391;46.742;11.636;2022-10-31T14:43:56;14.37;;;3.40;;
2766;SDS011;1391;46.742;11.636;2022-10-31T14:47:05;7.20;;;2.53;;
2766;SDS011;1391;46.742;11.636;2022-10-31T14:52:49;5.80;;;2.50;;
2766;SDS011;1391;46.742;11.636;2022-10-31T14:55:19;9.43;;;2.40;;
2766;SDS011;1391;46.742;11.636;2022-10-31T14:57:50;11.30;;;2.20;;
2766;SDS011;1391;46.742;11.636;2022-10-31T15:00:22;5.37;;;2.10;;
2766;SDS011;1391;46.742;11.636;2022-10-31T15:02:55;8.50;;;3.20;;
2766;SDS011;1391;46.742;11.636;2022-10-31T15:05:32;8.47;;;3.00;;
2766;SDS011;1391;46.742;11.636;2022-10-31T15:08:12;8.47;;;3.47;;
2766;SDS011;1391;46.742;11.636;2022-10-31T15:10:53;7.93;;;3.50;;
2766;SDS011;1391;46.742;11.636;2022-10-31T15:13:21;9.40;;;4.60;;
2766;SDS011;1391;46.742;11.636;2022-10-31T15:15:49;5.60;;;2.67;;
2766;SDS011;1391;46.742;11.636;2022-10-31T15:18:21;10.33;;;2.80;;
2766;SDS011;1391;46.742;11.636;2022-10-31T15:20:51;8.47;;;2.20;;
2766;SDS011;1391;46.742;11.636;2022-10-31T15:23:21;9.57;;;2.93;;
2766;SDS011;1391;46.742;11.636;2022-10-31T15:25:57;9.20;;;2.43;;
2766;SDS011;1391;46.742;11.636;2022-10-31T15:28:26;7.33;;;2.60;;
2766;SDS011;1391;46.742;11.636;2022-10-31T15:30:54;6.20;;;2.07;;
2766;SDS011;1391;46.742;11.636;2022-10-31T15:33:25;5.53;;;2.40;;
2766;SDS011;1391;46.742;11.636;2022-10-31T15:35:55;8.00;;;2.50;;
2766;SDS011;1391;46.742;11.636;2022-10-31T15:38:25;6.30;;;2.37;;